sensor_id;sensor_type;location;lat;lon;timestamp;P1;durP1;ratioP1;P2;durP2;ratioP2
42600;SDS011;28229;48.856;9.088;2023-07-31T00:01:08;2.93;;;1.30;;
42600;SDS011;28229;48.856;9.088;2023-07-31T00:03:34;4.90;;;1.70;;
42600;SDS011;28229;48.856;9.088;2023-07-31T00:06:00;3.10;;;1.90;;
42600;SDS011;28229;48.856;9.088;2023-07-31T00:08:27;2.03;;;1.60;;
42600;SDS011;28229;48.856;9.088;2023-07-31T00:10:53;2.97;;;1.70;;
42600;SDS011;28229;48.856;9.088;2023-07-31T00:13:19;2.77;;;1.63;;
42600;SDS011;28229;48.856;9.088;2023-07-31T00:15:45;2.27;;;1.70;;
42600;SDS011;28229;48.856;9.088;2023-07-31T00:18:25;4.13;;;1.87;;
42600;SDS011;28229;48.856;9.088;2023-07-31T00:20:52;3.80;;;1.73;;
42600;SDS011;28229;48.856;9.088;2023-07-31T00:23:18;2.47;;;1.73;;
42600;SDS011;28229;48.856;9.088;2023-07-31T00:25:44;1.70;;;1.60;;
42600;SDS011;28229;48.856;9.088;2023-07-31T00:28:10;3.67;;;1.77;;
42600;SDS011;28229;48.856;9.088;2023-07-31T00:30:36;3.30;;;1.77;;
42600;SDS011;28229;48.856;9.088;2023-07-31T00:33:02;2.50;;;1.53;;
42600;SDS011;28229;48.856;9.088;2023-07-31T00:35:29;3.90;;;1.70;;
42600;SDS011;28229;48.856;9.088;2023-07-31T00:37:56;2.57;;;1.60;;
42600;SDS011;28229;48.856;9.088;2023-07-31T00:40:23;3.03;;;1.80;;
42600;SDS011;28229;48.856;9.088;2023-07-31T00:42:49;2.30;;;1.70;;
42600;SDS011;28229;48.856;9.088;2023-07-31T00:45:16;3.20;;;1.90;;
42600;SDS011;28229;48.856;9.088;2023-07-31T00:47:42;1.80;;;1.60;;
42600;SDS011;28229;48.856;9.088;2023-07-31T00:50:08;1.97;;;1.50;;
42600;SDS011;28229;48.856;9.088;2023-07-31T00:52:35;3.07;;;1.80;;
42600;SDS011;28229;48.856;9.088;2023-07-31T00:55:02;3.10;;;1.60;;
42600;SDS011;28229;48.856;9.088;2023-07-31T00:57:30;3.13;;;1.83;;
42600;SDS011;28229;48.856;9.088;2023-07-31T00:59:58;2.47;;;1.70;;
42600;SDS011;28229;48.856;9.088;2023-07-31T01:02:25;3.27;;;1.80;;
42600;SDS011;28229;48.856;9.088;2023-07-31T01:04:52;3.93;;;1.77;;
42600;SDS011;28229;48.856;9.088;2023-07-31T01:07:22;1.73;;;1.50;;
42600;SDS011;28229;48.856;9.088;2023-07-31T01:10:02;4.17;;;1.83;;
42600;SDS011;28229;48.856;9.088;2023-07-31T01:12:34;2.70;;;1.70;;
42600;SDS011;28229;48.856;9.088;2023-07-31T01:17:26;2.37;;;1.70;;
42600;SDS011;28229;48.856;9.088;2023-07-31T01:19:53;2.27;;;1.77;;
42600;SDS011;28229;48.856;9.088;2023-07-31T01:23:10;1.90;;;1.50;;
42600;SDS011;28229;48.856;9.088;2023-07-31T01:28:04;4.03;;;1.80;;
42600;SDS011;28229;48.856;9.088;2023-07-31T01:30:34;3.00;;;1.90;;
42600;SDS011;28229;48.856;9.088;2023-07-31T01:33:06;2.37;;;1.53;;
42600;SDS011;28229;48.856;9.088;2023-07-31T01:35:34;3.87;;;1.80;;
42600;SDS011;28229;48.856;9.088;2023-07-31T01:38:00;4.27;;;1.77;;
42600;SDS011;28229;48.856;9.088;2023-07-31T01:40:27;4.47;;;1.97;;
42600;SDS011;28229;48.856;9.088;2023-07-31T01:42:53;3.93;;;1.80;;
42600;SDS011;28229;48.856;9.088;2023-07-31T01:45:19;2.40;;;1.80;;
42600;SDS011;28229;48.856;9.088;2023-07-31T01:47:46;2.57;;;1.70;;
42600;SDS011;28229;48.856;9.088;2023-07-31T01:50:12;4.13;;;1.87;;
42600;SDS011;28229;48.856;9.088;2023-07-31T01:52:38;3.20;;;1.60;;
42600;SDS011;28229;48.856;9.088;2023-07-31T01:55:05;4.10;;;1.90;;
42600;SDS011;28229;48.856;9.088;2023-07-31T01:57:31;2.80;;;1.90;;
42600;SDS011;28229;48.856;9.088;2023-07-31T01:59:57;3.00;;;1.80;;
42600;SDS011;28229;48.856;9.088;2023-07-31T02:02:23;4.83;;;1.90;;
42600;SDS011;28229;48.856;9.088;2023-07-31T02:04:51;2.70;;;1.70;;
42600;SDS011;28229;48.856;9.088;2023-07-31T02:07:17;2.40;;;1.67;;
42600;SDS011;28229;48.856;9.088;2023-07-31T02:09:43;3.50;;;1.70;;
42600;SDS011;28229;48.856;9.088;2023-07-31T02:12:09;5.20;;;2.07;;
42600;SDS011;28229;48.856;9.088;2023-07-31T02:14:50;4.33;;;2.00;;
42600;SDS011;28229;48.856;9.088;2023-07-31T02:17:16;2.23;;;1.80;;
42600;SDS011;28229;48.856;9.088;2023-07-31T02:19:42;3.73;;;2.13;;
42600;SDS011;28229;48.856;9.088;2023-07-31T02:22:08;2.27;;;1.70;;
42600;SDS011;28229;48.856;9.088;2023-07-31T02:24:34;1.83;;;1.60;;
42600;SDS011;28229;48.856;9.088;2023-07-31T02:27:01;3.30;;;1.93;;
42600;SDS011;28229;48.856;9.088;2023-07-31T02:29:27;6.43;;;1.90;;
42600;SDS011;28229;48.856;9.088;2023-07-31T02:31:56;4.73;;;2.00;;
42600;SDS011;28229;48.856;9.088;2023-07-31T02:34:22;4.73;;;1.80;;
42600;SDS011;28229;48.856;9.088;2023-07-31T02:36:51;3.73;;;1.70;;
42600;SDS011;28229;48.856;9.088;2023-07-31T02:39:18;3.07;;;1.90;;
42600;SDS011;28229;48.856;9.088;2023-07-31T02:41:58;2.73;;;1.90;;
42600;SDS011;28229;48.856;9.088;2023-07-31T02:44:24;5.97;;;2.37;;
42600;SDS011;28229;48.856;9.088;2023-07-31T02:46:50;2.73;;;2.10;;
42600;SDS011;28229;48.856;9.088;2023-07-31T02:49:16;3.13;;;2.13;;
42600;SDS011;28229;48.856;9.088;2023-07-31T02:51:43;4.83;;;2.07;;
42600;SDS011;28229;48.856;9.088;2023-07-31T02:54:09;2.20;;;2.00;;
42600;SDS011;28229;48.856;9.088;2023-07-31T02:56:35;3.47;;;1.90;;
42600;SDS011;28229;48.856;9.088;2023-07-31T02:59:01;3.83;;;1.60;;
42600;SDS011;28229;48.856;9.088;2023-07-31T03:01:27;2.77;;;2.00;;
42600;SDS011;28229;48.856;9.088;2023-07-31T03:03:53;2.50;;;1.80;;
42600;SDS011;28229;48.856;9.088;2023-07-31T03:06:20;2.90;;;1.80;;
42600;SDS011;28229;48.856;9.088;2023-07-31T03:08:46;3.70;;;2.00;;
42600;SDS011;28229;48.856;9.088;2023-07-31T03:11:12;3.57;;;1.77;;
42600;SDS011;28229;48.856;9.088;2023-07-31T03:13:38;2.27;;;1.70;;
42600;SDS011;28229;48.856;9.088;2023-07-31T03:16:04;3.10;;;1.90;;
42600;SDS011;28229;48.856;9.088;2023-07-31T03:18:31;2.20;;;2.00;;
42600;SDS011;28229;48.856;9.088;2023-07-31T03:20:57;3.47;;;1.73;;
42600;SDS011;28229;48.856;9.088;2023-07-31T03:23:23;3.40;;;2.00;;
42600;SDS011;28229;48.856;9.088;2023-07-31T03:26:00;2.87;;;1.70;;
42600;SDS011;28229;48.856;9.088;2023-07-31T03:28:29;4.60;;;2.07;;
42600;SDS011;28229;48.856;9.088;2023-07-31T03:30:55;2.13;;;1.93;;
42600;SDS011;28229;48.856;9.088;2023-07-31T03:33:22;3.97;;;2.00;;
42600;SDS011;28229;48.856;9.088;2023-07-31T03:35:49;3.03;;;2.00;;
42600;SDS011;28229;48.856;9.088;2023-07-31T03:38:15;3.37;;;2.00;;
42600;SDS011;28229;48.856;9.088;2023-07-31T03:40:41;2.67;;;1.83;;
42600;SDS011;28229;48.856;9.088;2023-07-31T03:43:07;3.27;;;2.00;;
42600;SDS011;28229;48.856;9.088;2023-07-31T03:45:34;3.10;;;1.73;;
42600;SDS011;28229;48.856;9.088;2023-07-31T03:48:00;5.33;;;1.90;;
42600;SDS011;28229;48.856;9.088;2023-07-31T03:50:26;3.50;;;2.00;;
42600;SDS011;28229;48.856;9.088;2023-07-31T03:52:52;2.30;;;1.80;;
42600;SDS011;28229;48.856;9.088;2023-07-31T03:55:18;5.23;;;2.20;;
42600;SDS011;28229;48.856;9.088;2023-07-31T03:57:45;4.30;;;2.27;;
42600;SDS011;28229;48.856;9.088;2023-07-31T04:00:11;5.17;;;1.90;;
42600;SDS011;28229;48.856;9.088;2023-07-31T04:02:41;2.50;;;1.70;;
42600;SDS011;28229;48.856;9.088;2023-07-31T04:05:07;2.77;;;1.83;;
42600;SDS011;28229;48.856;9.088;2023-07-31T04:07:33;3.23;;;1.97;;
42600;SDS011;28229;48.856;9.088;2023-07-31T04:10:00;3.77;;;1.83;;
42600;SDS011;28229;48.856;9.088;2023-07-31T04:12:26;2.03;;;1.83;;
42600;SDS011;28229;48.856;9.088;2023-07-31T04:14:52;3.73;;;2.00;;
42600;SDS011;28229;48.856;9.088;2023-07-31T04:17:18;3.47;;;2.03;;
42600;SDS011;28229;48.856;9.088;2023-07-31T04:19:44;3.70;;;1.87;;
42600;SDS011;28229;48.856;9.088;2023-07-31T04:22:10;4.03;;;2.23;;
42600;SDS011;28229;48.856;9.088;2023-07-31T04:24:37;2.87;;;1.90;;
42600;SDS011;28229;48.856;9.088;2023-07-31T04:27:03;3.43;;;1.90;;
42600;SDS011;28229;48.856;9.088;2023-07-31T04:29:29;4.80;;;2.20;;
42600;SDS011;28229;48.856;9.088;2023-07-31T04:31:55;2.97;;;1.80;;
42600;SDS011;28229;48.856;9.088;2023-07-31T04:34:21;4.70;;;1.83;;
42600;SDS011;28229;48.856;9.088;2023-07-31T04:36:47;2.57;;;2.00;;
42600;SDS011;28229;48.856;9.088;2023-07-31T04:39:13;2.90;;;2.00;;
42600;SDS011;28229;48.856;9.088;2023-07-31T04:41:40;2.60;;;2.10;;
42600;SDS011;28229;48.856;9.088;2023-07-31T04:44:06;3.43;;;2.10;;
42600;SDS011;28229;48.856;9.088;2023-07-31T04:46:32;2.80;;;2.17;;
42600;SDS011;28229;48.856;9.088;2023-07-31T04:48:58;2.97;;;1.80;;
42600;SDS011;28229;48.856;9.088;2023-07-31T04:51:24;3.20;;;2.10;;
42600;SDS011;28229;48.856;9.088;2023-07-31T04:53:51;3.13;;;1.90;;
42600;SDS011;28229;48.856;9.088;2023-07-31T04:56:19;2.57;;;1.87;;
42600;SDS011;28229;48.856;9.088;2023-07-31T04:58:45;4.50;;;1.90;;
42600;SDS011;28229;48.856;9.088;2023-07-31T05:01:14;4.77;;;2.10;;
42600;SDS011;28229;48.856;9.088;2023-07-31T05:03:40;3.73;;;1.90;;
42600;SDS011;28229;48.856;9.088;2023-07-31T05:06:06;4.40;;;2.00;;
42600;SDS011;28229;48.856;9.088;2023-07-31T05:08:32;2.87;;;1.90;;
42600;SDS011;28229;48.856;9.088;2023-07-31T05:10:59;3.33;;;1.90;;
42600;SDS011;28229;48.856;9.088;2023-07-31T05:13:25;3.27;;;1.87;;
42600;SDS011;28229;48.856;9.088;2023-07-31T05:15:51;4.60;;;1.70;;
42600;SDS011;28229;48.856;9.088;2023-07-31T05:18:17;2.80;;;2.00;;
42600;SDS011;28229;48.856;9.088;2023-07-31T05:20:43;3.80;;;1.90;;
42600;SDS011;28229;48.856;9.088;2023-07-31T05:23:10;3.70;;;1.90;;
42600;SDS011;28229;48.856;9.088;2023-07-31T05:25:36;2.77;;;1.77;;
42600;SDS011;28229;48.856;9.088;2023-07-31T05:28:02;1.97;;;1.73;;
42600;SDS011;28229;48.856;9.088;2023-07-31T05:30:31;2.90;;;2.10;;
42600;SDS011;28229;48.856;9.088;2023-07-31T05:32:57;2.03;;;1.87;;
42600;SDS011;28229;48.856;9.088;2023-07-31T05:35:24;2.47;;;1.83;;
42600;SDS011;28229;48.856;9.088;2023-07-31T05:37:50;3.83;;;1.80;;
42600;SDS011;28229;48.856;9.088;2023-07-31T05:40:16;2.47;;;1.70;;
42600;SDS011;28229;48.856;9.088;2023-07-31T05:42:42;2.40;;;1.77;;
42600;SDS011;28229;48.856;9.088;2023-07-31T05:45:08;4.70;;;2.20;;
42600;SDS011;28229;48.856;9.088;2023-07-31T05:47:35;3.30;;;1.70;;
42600;SDS011;28229;48.856;9.088;2023-07-31T05:50:01;3.07;;;1.80;;
42600;SDS011;28229;48.856;9.088;2023-07-31T05:52:27;2.77;;;1.90;;
42600;SDS011;28229;48.856;9.088;2023-07-31T05:54:55;2.63;;;2.00;;
42600;SDS011;28229;48.856;9.088;2023-07-31T05:57:21;4.47;;;2.00;;
42600;SDS011;28229;48.856;9.088;2023-07-31T05:59:47;3.43;;;1.93;;
42600;SDS011;28229;48.856;9.088;2023-07-31T06:02:13;2.50;;;1.93;;
42600;SDS011;28229;48.856;9.088;2023-07-31T06:04:39;3.37;;;1.70;;
42600;SDS011;28229;48.856;9.088;2023-07-31T06:07:05;2.67;;;1.83;;
42600;SDS011;28229;48.856;9.088;2023-07-31T06:09:32;2.97;;;1.97;;
42600;SDS011;28229;48.856;9.088;2023-07-31T06:11:58;3.37;;;2.10;;
42600;SDS011;28229;48.856;9.088;2023-07-31T06:14:24;3.23;;;1.90;;
42600;SDS011;28229;48.856;9.088;2023-07-31T06:16:50;5.67;;;2.17;;
42600;SDS011;28229;48.856;9.088;2023-07-31T06:19:16;3.77;;;1.90;;
42600;SDS011;28229;48.856;9.088;2023-07-31T06:21:42;4.10;;;1.77;;
42600;SDS011;28229;48.856;9.088;2023-07-31T06:24:09;3.07;;;1.77;;
42600;SDS011;28229;48.856;9.088;2023-07-31T06:26:36;2.73;;;2.10;;
42600;SDS011;28229;48.856;9.088;2023-07-31T06:29:02;4.43;;;2.20;;
42600;SDS011;28229;48.856;9.088;2023-07-31T06:31:28;5.80;;;2.33;;
42600;SDS011;28229;48.856;9.088;2023-07-31T06:33:54;4.37;;;2.00;;
42600;SDS011;28229;48.856;9.088;2023-07-31T06:36:20;2.90;;;1.80;;
42600;SDS011;28229;48.856;9.088;2023-07-31T06:38:47;4.80;;;2.00;;
42600;SDS011;28229;48.856;9.088;2023-07-31T06:41:13;4.43;;;1.80;;
42600;SDS011;28229;48.856;9.088;2023-07-31T06:43:39;5.57;;;1.87;;
42600;SDS011;28229;48.856;9.088;2023-07-31T06:46:06;5.60;;;1.90;;
42600;SDS011;28229;48.856;9.088;2023-07-31T06:48:33;2.47;;;1.73;;
42600;SDS011;28229;48.856;9.088;2023-07-31T06:51:02;3.70;;;1.80;;
42600;SDS011;28229;48.856;9.088;2023-07-31T06:53:30;4.83;;;2.30;;
42600;SDS011;28229;48.856;9.088;2023-07-31T06:55:56;3.27;;;1.90;;
42600;SDS011;28229;48.856;9.088;2023-07-31T06:58:22;4.33;;;2.00;;
42600;SDS011;28229;48.856;9.088;2023-07-31T07:00:48;4.87;;;1.90;;
42600;SDS011;28229;48.856;9.088;2023-07-31T07:03:20;3.50;;;2.03;;
42600;SDS011;28229;48.856;9.088;2023-07-31T07:05:46;5.20;;;2.00;;
42600;SDS011;28229;48.856;9.088;2023-07-31T07:08:12;3.37;;;2.23;;
42600;SDS011;28229;48.856;9.088;2023-07-31T07:10:38;1.93;;;1.73;;
42600;SDS011;28229;48.856;9.088;2023-07-31T07:13:05;3.10;;;1.70;;
42600;SDS011;28229;48.856;9.088;2023-07-31T07:15:31;3.57;;;1.93;;
42600;SDS011;28229;48.856;9.088;2023-07-31T07:18:14;3.23;;;2.00;;
42600;SDS011;28229;48.856;9.088;2023-07-31T07:20:46;6.07;;;1.77;;
42600;SDS011;28229;48.856;9.088;2023-07-31T07:23:13;2.40;;;2.00;;
42600;SDS011;28229;48.856;9.088;2023-07-31T07:25:39;3.70;;;1.93;;
42600;SDS011;28229;48.856;9.088;2023-07-31T07:28:06;4.97;;;2.00;;
42600;SDS011;28229;48.856;9.088;2023-07-31T07:30:32;1.87;;;1.70;;
42600;SDS011;28229;48.856;9.088;2023-07-31T07:33:00;3.20;;;2.10;;
42600;SDS011;28229;48.856;9.088;2023-07-31T07:35:26;3.80;;;1.80;;
42600;SDS011;28229;48.856;9.088;2023-07-31T07:37:52;3.20;;;1.80;;
42600;SDS011;28229;48.856;9.088;2023-07-31T07:40:20;2.63;;;2.13;;
42600;SDS011;28229;48.856;9.088;2023-07-31T07:42:46;4.83;;;2.20;;
42600;SDS011;28229;48.856;9.088;2023-07-31T07:45:12;2.90;;;1.80;;
42600;SDS011;28229;48.856;9.088;2023-07-31T07:47:42;3.03;;;1.80;;
42600;SDS011;28229;48.856;9.088;2023-07-31T07:50:08;4.03;;;2.20;;
42600;SDS011;28229;48.856;9.088;2023-07-31T07:52:35;4.77;;;1.97;;
42600;SDS011;28229;48.856;9.088;2023-07-31T07:55:01;4.53;;;2.00;;
42600;SDS011;28229;48.856;9.088;2023-07-31T07:57:27;4.23;;;1.80;;
42600;SDS011;28229;48.856;9.088;2023-07-31T07:59:54;2.37;;;1.70;;
42600;SDS011;28229;48.856;9.088;2023-07-31T08:02:20;4.20;;;1.97;;
42600;SDS011;28229;48.856;9.088;2023-07-31T08:04:47;2.60;;;1.73;;
42600;SDS011;28229;48.856;9.088;2023-07-31T08:07:14;4.03;;;2.00;;
42600;SDS011;28229;48.856;9.088;2023-07-31T08:09:40;4.37;;;1.90;;
42600;SDS011;28229;48.856;9.088;2023-07-31T08:12:07;4.27;;;2.00;;
42600;SDS011;28229;48.856;9.088;2023-07-31T08:14:33;3.03;;;2.03;;
42600;SDS011;28229;48.856;9.088;2023-07-31T08:17:00;4.53;;;2.10;;
42600;SDS011;28229;48.856;9.088;2023-07-31T08:19:26;5.33;;;1.97;;
42600;SDS011;28229;48.856;9.088;2023-07-31T08:21:52;3.30;;;2.17;;
42600;SDS011;28229;48.856;9.088;2023-07-31T08:24:18;3.53;;;2.10;;
42600;SDS011;28229;48.856;9.088;2023-07-31T08:26:44;4.37;;;2.33;;
42600;SDS011;28229;48.856;9.088;2023-07-31T08:29:11;4.37;;;1.70;;
42600;SDS011;28229;48.856;9.088;2023-07-31T08:31:37;5.17;;;2.07;;
42600;SDS011;28229;48.856;9.088;2023-07-31T08:34:03;4.30;;;2.07;;
42600;SDS011;28229;48.856;9.088;2023-07-31T08:36:29;4.67;;;2.20;;
42600;SDS011;28229;48.856;9.088;2023-07-31T08:38:55;4.27;;;2.23;;
42600;SDS011;28229;48.856;9.088;2023-07-31T08:41:21;3.97;;;2.27;;
42600;SDS011;28229;48.856;9.088;2023-07-31T08:43:49;4.97;;;2.40;;
42600;SDS011;28229;48.856;9.088;2023-07-31T08:46:15;4.50;;;2.30;;
42600;SDS011;28229;48.856;9.088;2023-07-31T08:48:42;4.73;;;2.20;;
42600;SDS011;28229;48.856;9.088;2023-07-31T08:51:09;3.20;;;2.10;;
42600;SDS011;28229;48.856;9.088;2023-07-31T08:53:37;6.50;;;2.27;;
42600;SDS011;28229;48.856;9.088;2023-07-31T08:56:03;4.43;;;2.30;;
42600;SDS011;28229;48.856;9.088;2023-07-31T08:58:31;3.80;;;2.17;;
42600;SDS011;28229;48.856;9.088;2023-07-31T09:00:59;3.03;;;2.10;;
42600;SDS011;28229;48.856;9.088;2023-07-31T09:03:27;4.20;;;2.37;;
42600;SDS011;28229;48.856;9.088;2023-07-31T09:05:58;3.90;;;2.23;;
42600;SDS011;28229;48.856;9.088;2023-07-31T09:08:25;3.90;;;2.10;;
42600;SDS011;28229;48.856;9.088;2023-07-31T09:10:58;3.27;;;2.07;;
42600;SDS011;28229;48.856;9.088;2023-07-31T09:13:27;3.90;;;2.27;;
42600;SDS011;28229;48.856;9.088;2023-07-31T09:15:54;3.03;;;2.03;;
42600;SDS011;28229;48.856;9.088;2023-07-31T09:18:20;4.60;;;2.27;;
42600;SDS011;28229;48.856;9.088;2023-07-31T09:21:01;4.23;;;2.27;;
42600;SDS011;28229;48.856;9.088;2023-07-31T09:23:40;3.87;;;2.13;;
42600;SDS011;28229;48.856;9.088;2023-07-31T09:26:08;5.07;;;2.97;;
42600;SDS011;28229;48.856;9.088;2023-07-31T09:28:35;3.93;;;2.03;;
42600;SDS011;28229;48.856;9.088;2023-07-31T09:31:01;5.57;;;2.40;;
42600;SDS011;28229;48.856;9.088;2023-07-31T09:33:27;4.10;;;2.50;;
42600;SDS011;28229;48.856;9.088;2023-07-31T09:36:12;4.33;;;2.60;;
42600;SDS011;28229;48.856;9.088;2023-07-31T09:38:50;6.10;;;2.40;;
42600;SDS011;28229;48.856;9.088;2023-07-31T09:41:16;3.30;;;2.10;;
42600;SDS011;28229;48.856;9.088;2023-07-31T09:43:42;4.87;;;2.43;;
42600;SDS011;28229;48.856;9.088;2023-07-31T09:46:22;3.67;;;2.40;;
42600;SDS011;28229;48.856;9.088;2023-07-31T09:48:48;4.60;;;2.27;;
42600;SDS011;28229;48.856;9.088;2023-07-31T09:51:14;4.83;;;2.50;;
42600;SDS011;28229;48.856;9.088;2023-07-31T09:53:40;4.20;;;2.13;;
42600;SDS011;28229;48.856;9.088;2023-07-31T09:56:06;5.47;;;2.13;;
42600;SDS011;28229;48.856;9.088;2023-07-31T09:58:34;5.67;;;2.40;;
42600;SDS011;28229;48.856;9.088;2023-07-31T10:01:05;4.93;;;2.63;;
42600;SDS011;28229;48.856;9.088;2023-07-31T10:03:31;3.63;;;2.17;;
42600;SDS011;28229;48.856;9.088;2023-07-31T10:05:58;4.50;;;2.20;;
42600;SDS011;28229;48.856;9.088;2023-07-31T10:08:27;4.13;;;2.47;;
42600;SDS011;28229;48.856;9.088;2023-07-31T10:10:58;4.07;;;2.20;;
42600;SDS011;28229;48.856;9.088;2023-07-31T10:13:28;4.47;;;2.30;;
42600;SDS011;28229;48.856;9.088;2023-07-31T10:15:58;3.77;;;2.57;;
42600;SDS011;28229;48.856;9.088;2023-07-31T10:18:26;4.77;;;2.20;;
42600;SDS011;28229;48.856;9.088;2023-07-31T10:20:54;2.93;;;2.10;;
42600;SDS011;28229;48.856;9.088;2023-07-31T10:23:21;4.03;;;2.50;;
42600;SDS011;28229;48.856;9.088;2023-07-31T10:25:49;5.47;;;2.47;;
42600;SDS011;28229;48.856;9.088;2023-07-31T10:28:18;6.03;;;2.93;;
42600;SDS011;28229;48.856;9.088;2023-07-31T10:30:46;4.27;;;2.03;;
42600;SDS011;28229;48.856;9.088;2023-07-31T10:33:16;4.50;;;2.67;;
42600;SDS011;28229;48.856;9.088;2023-07-31T10:35:43;5.33;;;2.47;;
42600;SDS011;28229;48.856;9.088;2023-07-31T10:38:10;3.30;;;2.17;;
42600;SDS011;28229;48.856;9.088;2023-07-31T10:40:40;3.93;;;2.40;;
42600;SDS011;28229;48.856;9.088;2023-07-31T10:43:07;3.83;;;2.40;;
42600;SDS011;28229;48.856;9.088;2023-07-31T10:45:37;4.23;;;2.27;;
42600;SDS011;28229;48.856;9.088;2023-07-31T10:48:06;3.47;;;2.30;;
42600;SDS011;28229;48.856;9.088;2023-07-31T10:50:38;3.43;;;2.43;;
42600;SDS011;28229;48.856;9.088;2023-07-31T10:53:21;4.57;;;2.47;;
42600;SDS011;28229;48.856;9.088;2023-07-31T10:55:49;5.78;;;2.60;;
42600;SDS011;28229;48.856;9.088;2023-07-31T10:58:18;3.73;;;2.60;;
42600;SDS011;28229;48.856;9.088;2023-07-31T11:01:01;5.10;;;2.70;;
42600;SDS011;28229;48.856;9.088;2023-07-31T11:03:48;4.30;;;2.72;;
42600;SDS011;28229;48.856;9.088;2023-07-31T11:06:18;3.47;;;2.20;;
42600;SDS011;28229;48.856;9.088;2023-07-31T11:08:45;5.43;;;2.58;;
42600;SDS011;28229;48.856;9.088;2023-07-31T11:11:13;5.47;;;2.80;;
42600;SDS011;28229;48.856;9.088;2023-07-31T11:13:42;4.23;;;2.40;;
42600;SDS011;28229;48.856;9.088;2023-07-31T11:16:09;5.23;;;2.70;;
42600;SDS011;28229;48.856;9.088;2023-07-31T11:18:38;2.93;;;2.40;;
42600;SDS011;28229;48.856;9.088;2023-07-31T11:21:04;3.80;;;2.72;;
42600;SDS011;28229;48.856;9.088;2023-07-31T11:23:31;3.53;;;2.57;;
42600;SDS011;28229;48.856;9.088;2023-07-31T11:26:01;4.57;;;2.40;;
42600;SDS011;28229;48.856;9.088;2023-07-31T11:28:31;5.20;;;2.33;;
42600;SDS011;28229;48.856;9.088;2023-07-31T11:31:01;4.00;;;2.60;;
42600;SDS011;28229;48.856;9.088;2023-07-31T11:33:28;3.80;;;2.40;;
42600;SDS011;28229;48.856;9.088;2023-07-31T11:35:54;3.83;;;2.70;;
42600;SDS011;28229;48.856;9.088;2023-07-31T11:38:21;4.03;;;2.70;;
42600;SDS011;28229;48.856;9.088;2023-07-31T11:40:52;6.28;;;2.72;;
42600;SDS011;28229;48.856;9.088;2023-07-31T11:43:19;4.47;;;2.57;;
42600;SDS011;28229;48.856;9.088;2023-07-31T11:45:47;3.55;;;2.67;;
42600;SDS011;28229;48.856;9.088;2023-07-31T11:48:37;4.07;;;3.00;;
42600;SDS011;28229;48.856;9.088;2023-07-31T11:51:04;3.63;;;2.80;;
42600;SDS011;28229;48.856;9.088;2023-07-31T11:56:06;5.57;;;2.57;;
42600;SDS011;28229;48.856;9.088;2023-07-31T11:58:34;5.43;;;2.80;;
42600;SDS011;28229;48.856;9.088;2023-07-31T12:01:02;3.87;;;2.47;;
42600;SDS011;28229;48.856;9.088;2023-07-31T12:03:31;8.30;;;2.67;;
42600;SDS011;28229;48.856;9.088;2023-07-31T12:05:58;3.93;;;2.70;;
42600;SDS011;28229;48.856;9.088;2023-07-31T12:08:25;4.67;;;2.73;;
42600;SDS011;28229;48.856;9.088;2023-07-31T12:10:52;5.15;;;3.00;;
42600;SDS011;28229;48.856;9.088;2023-07-31T12:13:23;3.73;;;2.50;;
42600;SDS011;28229;48.856;9.088;2023-07-31T12:15:55;4.22;;;2.85;;
42600;SDS011;28229;48.856;9.088;2023-07-31T12:18:24;7.10;;;3.47;;
42600;SDS011;28229;48.856;9.088;2023-07-31T12:20:58;6.05;;;4.25;;
42600;SDS011;28229;48.856;9.088;2023-07-31T12:23:27;5.30;;;3.60;;
42600;SDS011;28229;48.856;9.088;2023-07-31T12:28:28;5.00;;;2.93;;
42600;SDS011;28229;48.856;9.088;2023-07-31T12:30:57;3.90;;;2.90;;
42600;SDS011;28229;48.856;9.088;2023-07-31T12:33:32;5.25;;;2.80;;
42600;SDS011;28229;48.856;9.088;2023-07-31T12:36:00;4.23;;;3.40;;
42600;SDS011;28229;48.856;9.088;2023-07-31T12:38:28;3.40;;;2.80;;
42600;SDS011;28229;48.856;9.088;2023-07-31T12:40:55;3.55;;;2.83;;
42600;SDS011;28229;48.856;9.088;2023-07-31T12:43:21;4.57;;;3.40;;
42600;SDS011;28229;48.856;9.088;2023-07-31T12:45:47;6.65;;;3.10;;
42600;SDS011;28229;48.856;9.088;2023-07-31T12:48:14;5.25;;;2.75;;
42600;SDS011;28229;48.856;9.088;2023-07-31T12:50:42;5.57;;;2.88;;
42600;SDS011;28229;48.856;9.088;2023-07-31T12:53:11;5.20;;;2.60;;
42600;SDS011;28229;48.856;9.088;2023-07-31T12:55:37;3.22;;;2.30;;
42600;SDS011;28229;48.856;9.088;2023-07-31T12:58:03;3.10;;;2.17;;
42600;SDS011;28229;48.856;9.088;2023-07-31T13:00:30;3.60;;;2.40;;
42600;SDS011;28229;48.856;9.088;2023-07-31T13:02:56;5.80;;;2.57;;
42600;SDS011;28229;48.856;9.088;2023-07-31T13:05:22;3.00;;;2.10;;
42600;SDS011;28229;48.856;9.088;2023-07-31T13:07:48;3.97;;;2.20;;
42600;SDS011;28229;48.856;9.088;2023-07-31T13:10:14;3.20;;;2.40;;
42600;SDS011;28229;48.856;9.088;2023-07-31T13:12:41;3.83;;;2.50;;
42600;SDS011;28229;48.856;9.088;2023-07-31T13:15:07;2.73;;;2.20;;
42600;SDS011;28229;48.856;9.088;2023-07-31T13:17:34;3.37;;;2.33;;
42600;SDS011;28229;48.856;9.088;2023-07-31T13:20:01;2.63;;;2.20;;
42600;SDS011;28229;48.856;9.088;2023-07-31T13:22:29;2.70;;;2.27;;
42600;SDS011;28229;48.856;9.088;2023-07-31T13:24:55;4.00;;;2.50;;
42600;SDS011;28229;48.856;9.088;2023-07-31T13:27:21;2.50;;;2.20;;
42600;SDS011;28229;48.856;9.088;2023-07-31T13:29:48;4.70;;;2.70;;
42600;SDS011;28229;48.856;9.088;2023-07-31T13:32:15;3.43;;;2.33;;
42600;SDS011;28229;48.856;9.088;2023-07-31T13:34:42;3.43;;;2.37;;
42600;SDS011;28229;48.856;9.088;2023-07-31T13:37:09;3.87;;;2.37;;
42600;SDS011;28229;48.856;9.088;2023-07-31T13:39:35;3.55;;;2.42;;
42600;SDS011;28229;48.856;9.088;2023-07-31T13:42:02;4.13;;;2.40;;
42600;SDS011;28229;48.856;9.088;2023-07-31T13:44:29;3.40;;;2.40;;
42600;SDS011;28229;48.856;9.088;2023-07-31T13:47:06;3.23;;;2.23;;
42600;SDS011;28229;48.856;9.088;2023-07-31T13:49:33;3.97;;;2.60;;
42600;SDS011;28229;48.856;9.088;2023-07-31T13:52:00;3.30;;;2.47;;
42600;SDS011;28229;48.856;9.088;2023-07-31T13:54:26;4.50;;;2.60;;
42600;SDS011;28229;48.856;9.088;2023-07-31T13:56:52;4.57;;;2.57;;
42600;SDS011;28229;48.856;9.088;2023-07-31T13:59:19;3.03;;;2.53;;
42600;SDS011;28229;48.856;9.088;2023-07-31T14:01:46;3.80;;;2.40;;
42600;SDS011;28229;48.856;9.088;2023-07-31T14:04:12;2.67;;;2.20;;
42600;SDS011;28229;48.856;9.088;2023-07-31T14:06:39;3.23;;;2.40;;
42600;SDS011;28229;48.856;9.088;2023-07-31T14:09:05;2.67;;;2.30;;
42600;SDS011;28229;48.856;9.088;2023-07-31T14:11:32;4.43;;;2.67;;
42600;SDS011;28229;48.856;9.088;2023-07-31T14:13:58;5.05;;;2.50;;
42600;SDS011;28229;48.856;9.088;2023-07-31T14:16:24;3.38;;;2.55;;
42600;SDS011;28229;48.856;9.088;2023-07-31T14:18:50;2.85;;;2.60;;
42600;SDS011;28229;48.856;9.088;2023-07-31T14:21:19;3.25;;;2.53;;
42600;SDS011;28229;48.856;9.088;2023-07-31T14:23:46;4.53;;;2.63;;
42600;SDS011;28229;48.856;9.088;2023-07-31T14:26:12;3.08;;;2.40;;
42600;SDS011;28229;48.856;9.088;2023-07-31T14:28:38;2.70;;;2.28;;
42600;SDS011;28229;48.856;9.088;2023-07-31T14:31:04;3.30;;;2.80;;
42600;SDS011;28229;48.856;9.088;2023-07-31T14:33:30;4.25;;;2.50;;
42600;SDS011;28229;48.856;9.088;2023-07-31T14:35:57;3.58;;;2.47;;
42600;SDS011;28229;48.856;9.088;2023-07-31T14:38:23;3.40;;;2.38;;
42600;SDS011;28229;48.856;9.088;2023-07-31T14:40:49;2.65;;;2.17;;
42600;SDS011;28229;48.856;9.088;2023-07-31T14:43:16;3.22;;;2.80;;
42600;SDS011;28229;48.856;9.088;2023-07-31T14:45:42;3.65;;;2.30;;
42600;SDS011;28229;48.856;9.088;2023-07-31T14:48:09;3.33;;;2.53;;
42600;SDS011;28229;48.856;9.088;2023-07-31T14:50:35;3.40;;;2.50;;
42600;SDS011;28229;48.856;9.088;2023-07-31T14:53:01;3.03;;;2.40;;
42600;SDS011;28229;48.856;9.088;2023-07-31T14:55:27;6.00;;;2.97;;
42600;SDS011;28229;48.856;9.088;2023-07-31T14:57:53;4.68;;;2.60;;
42600;SDS011;28229;48.856;9.088;2023-07-31T15:00:19;4.20;;;2.80;;